Aurora Center, South Dakota
Current Conditions -  °F | °C
As of 2:53 AM on Wednesday 22 Oct 2014 (Local Time) from KMHE Reporting Station
Clear Clear  
Wind Chill: 16°   Ceiling: Unl
Heat Index: 16°   Visibility: 10mi
Dew Point:   Wind: 21mph
Humidity: 46%   Direction: 150°SSE
Pressure: 29.91"   Gusts: NA
Location:  43.5853°N, 98.5581°W
Report Text: KMHE 220753Z AUTO 15018KT 10SM CLR 16/04 A2991 RMK AO2 PK WND 15029/0733 SLP121 T01560039 $
Loading
Personal Weather Stations






























Interactive Weather Map
Tropical Storm Tracking
New forecast layout! Learn more

10-Day Weather Forecast

Advertisements
Track Severe Weather on mobile